Time;durP1;ratioP1;P1;durP2;ratioP2;P2;SDS_P1;SDS_P2;PMS_P1;PMS_P2;Temp;Humidity;BMP_temperature;BMP_pressure;BME280_temperature;BME280_humidity;BME280_pressure;Samples;Min_cycle;Max_cycle;Signal;HPM_P1;HPM_P2
2021/05/08 00:00:28;;;;;;;6.35;5.75;;;;;;;2.15;81.03;100743.28;2032030;29;20028;-64
2021/05/08 00:01:29;;;;;;;7.10;6.00;;;;;;;2.13;81.51;100740.69;2036872;29;20114;-63
2021/05/08 00:02:29;;;;;;;6.77;6.07;;;;;;;2.10;81.42;100748.38;2030470;29;20028;-64
2021/05/08 00:03:30;;;;;;;6.33;5.60;;;;;;;2.14;81.00;100738.97;2024998;29;20829;-62
2021/05/08 00:04:30;;;;;;;7.60;5.90;;;;;;;2.17;80.90;100744.16;2037233;29;20028;-63
2021/05/08 00:05:31;;;;;;;6.95;6.13;;;;;;;2.20;80.91;100738.19;2038106;29;20722;-62
2021/05/08 00:06:34;;;;;;;7.37;5.43;;;;;;;2.16;80.85;100743.28;2031048;29;20036;-64
2021/05/08 00:07:35;;;;;;;6.57;5.97;;;;;;;2.16;80.97;100743.28;2033249;29;20513;-62
2021/05/08 00:08:35;;;;;;;7.40;5.57;;;;;;;2.31;80.19;100740.06;2038893;29;20182;-62
2021/05/08 00:09:36;;;;;;;10.68;5.68;;;;;;;2.24;79.99;100747.66;2033861;29;20036;-64
2021/05/08 00:10:36;;;;;;;5.97;5.43;;;;;;;2.23;80.67;100735.66;2036710;29;20150;-63
2021/05/08 00:11:37;;;;;;;6.23;5.13;;;;;;;2.39;79.78;100735.00;2034499;29;20102;-62
2021/05/08 00:12:37;;;;;;;7.97;5.70;;;;;;;2.35;79.65;100733.22;2045187;28;20437;-62
2021/05/08 00:13:38;;;;;;;6.63;5.50;;;;;;;2.31;79.92;100732.34;2037575;29;20039;-62
2021/05/08 00:14:38;;;;;;;6.47;5.73;;;;;;;2.26;80.13;100744.25;2036075;29;20091;-65
2021/05/08 00:15:39;;;;;;;6.70;6.00;;;;;;;2.25;80.28;100736.53;2044909;29;20054;-64
2021/05/08 00:16:39;;;;;;;6.10;5.50;;;;;;;2.24;80.15;100745.09;2042957;29;20074;-63
2021/05/08 00:17:39;;;;;;;6.43;5.73;;;;;;;2.29;79.89;100740.88;2036705;29;20731;-63
2021/05/08 00:18:39;;;;;;;7.53;5.97;;;;;;;2.25;80.28;100740.00;2038279;29;20031;-63
2021/05/08 00:19:40;;;;;;;7.60;5.80;;;;;;;2.23;80.57;100748.50;2037533;29;20118;-63
2021/05/08 00:20:40;;;;;;;6.20;5.57;;;;;;;2.36;79.61;100739.22;2037604;29;20115;-63
2021/05/08 00:21:40;;;;;;;8.43;5.40;;;;;;;2.30;79.62;100738.31;2036513;29;20039;-63
2021/05/08 00:22:41;;;;;;;7.23;6.07;;;;;;;2.32;79.52;100734.06;2037344;29;20532;-63
2021/05/08 00:23:41;;;;;;;5.83;5.23;;;;;;;2.27;79.52;100740.84;2037821;29;20496;-63
2021/05/08 00:24:42;;;;;;;8.20;5.73;;;;;;;2.25;79.88;100741.69;2041911;28;20143;-63
2021/05/08 00:25:42;;;;;;;6.83;6.13;;;;;;;2.18;80.75;100741.63;2038667;29;20124;-63
2021/05/08 00:26:42;;;;;;;7.20;6.40;;;;;;;2.14;81.17;100744.13;2036127;29;20449;-63
2021/05/08 00:27:42;;;;;;;6.70;6.00;;;;;;;2.13;81.88;100743.25;2038202;29;20098;-63
2021/05/08 00:28:43;;;;;;;7.57;6.57;;;;;;;2.14;82.53;100749.28;2036064;28;20097;-63
2021/05/08 00:29:43;;;;;;;8.77;6.60;;;;;;;2.13;82.80;100742.41;2037738;29;20484;-64
2021/05/08 00:30:44;;;;;;;7.90;7.10;;;;;;;2.07;83.21;100740.59;2034444;29;20878;-63
2021/05/08 00:31:44;;;;;;;9.73;6.53;;;;;;;2.01;83.12;100746.53;2037205;29;20748;-65
2021/05/08 00:32:44;;;;;;;9.00;7.00;;;;;;;1.99;83.63;100749.94;2035596;29;20027;-62
2021/05/08 00:33:45;;;;;;;8.60;6.73;;;;;;;1.91;83.54;100746.38;2038050;29;20282;-59
2021/05/08 00:34:45;;;;;;;7.70;6.90;;;;;;;1.85;84.21;100742.03;2041924;29;20027;-63
2021/05/08 00:35:46;;;;;;;7.63;6.83;;;;;;;1.78;84.35;100747.88;2037212;29;20672;-63
2021/05/08 00:36:46;;;;;;;7.63;6.67;;;;;;;1.76;84.60;100753.03;2037426;29;20097;-63
2021/05/08 00:37:47;;;;;;;20.30;13.60;;;;;;;1.72;84.77;100748.66;2038193;29;20275;-63
2021/05/08 00:38:47;;;;;;;26.08;17.27;;;;;;;1.74;85.06;100751.28;2037210;29;20028;-64
2021/05/08 00:39:48;;;;;;;12.53;8.33;;;;;;;1.76;85.48;100755.59;2038045;29;20032;-63
2021/05/08 00:40:49;;;;;;;12.90;9.27;;;;;;;1.72;85.44;100746.09;2038165;29;20031;-64
2021/05/08 00:41:51;;;;;;;9.77;6.78;;;;;;;1.74;85.43;100749.56;2038587;28;20030;-63
2021/05/08 00:42:51;;;;;;;7.78;6.97;;;;;;;1.66;85.65;100749.47;2037870;29;20118;-63
2021/05/08 00:43:58;;;;;;;10.40;7.10;;;;;;;1.62;86.05;100744.22;2038430;29;20027;-63
2021/05/08 00:44:58;;;;;;;7.95;7.13;;;;;;;1.54;86.32;100751.84;2034920;29;20123;-63
2021/05/08 00:45:59;;;;;;;8.80;7.13;;;;;;;1.53;86.43;100745.81;2037533;29;20027;-63
2021/05/08 00:46:59;;;;;;;8.37;7.03;;;;;;;1.51;86.54;100746.63;2037787;29;20031;-63
2021/05/08 00:48:06;;;;;;;8.37;7.57;;;;;;;1.51;86.39;100737.25;2037686;29;20028;-64
2021/05/08 00:49:07;;;;;;;9.20;7.85;;;;;;;1.49;86.15;100745.75;2038180;29;20314;-63
2021/05/08 00:50:09;;;;;;;9.00;6.80;;;;;;;1.47;86.40;100748.31;2037984;29;20024;-63
2021/05/08 00:51:10;;;;;;;8.10;7.30;;;;;;;1.45;86.70;100751.69;2036538;29;20939;-63
2021/05/08 00:52:12;;;;;;;7.65;6.38;;;;;;;1.46;86.61;100753.44;2036186;29;20109;-63
2021/05/08 00:53:13;;;;;;;7.28;6.50;;;;;;;1.46;86.14;100753.44;2037846;29;20488;-63
2021/05/08 00:54:13;;;;;;;9.33;6.97;;;;;;;1.47;86.16;100743.16;2038821;29;20044;-63
2021/05/08 00:55:14;;;;;;;9.13;6.38;;;;;;;1.47;85.98;100743.16;2046172;28;20107;-63
2021/05/08 00:56:14;;;;;;;7.30;6.20;;;;;;;1.50;85.56;100737.19;2041769;28;20091;-63
2021/05/08 00:57:15;;;;;;;7.23;6.33;;;;;;;1.52;85.16;100741.50;2044009;28;20034;-63
2021/05/08 00:58:15;;;;;;;7.73;6.40;;;;;;;1.61;84.54;100733.09;2043900;28;20051;-63
2021/05/08 00:59:16;;;;;;;7.20;6.60;;;;;;;1.69;83.76;100739.22;2041259;29;20057;-63
2021/05/08 01:00:16;;;;;;;8.00;6.70;;;;;;;1.80;82.99;100729.09;2037736;29;20161;-63
2021/05/08 01:01:18;;;;;;;6.65;6.05;;;;;;;1.81;82.93;100735.09;2039135;29;20032;-63
2021/05/08 01:02:19;;;;;;;6.30;5.70;;;;;;;1.86;82.42;100734.31;2038086;29;20043;-62
2021/05/08 01:03:20;;;;;;;7.10;6.40;;;;;;;1.83;82.78;100739.41;2038260;29;20024;-63
2021/05/08 01:04:21;;;;;;;6.88;6.05;;;;;;;1.82;82.78;100747.09;2040377;29;20039;-62
2021/05/08 01:05:22;;;;;;;6.70;5.63;;;;;;;1.87;82.10;100735.16;2038978;29;20042;-62
2021/05/08 01:06:23;;;;;;;7.00;5.80;;;;;;;1.84;82.42;100740.28;2039426;29;20024;-62
2021/05/08 01:07:24;;;;;;;7.83;5.93;;;;;;;1.88;82.44;100728.34;2040164;29;20032;-62
2021/05/08 01:08:25;;;;;;;6.95;5.57;;;;;;;1.85;82.32;100737.72;2040469;29;20019;-63
2021/05/08 01:09:25;;;;;;;6.18;5.55;;;;;;;1.88;81.93;100731.75;2040187;29;20027;-63
2021/05/08 01:10:27;;;;;;;5.83;5.33;;;;;;;1.94;81.60;100728.41;2039629;29;20047;-63
2021/05/08 01:11:27;;;;;;;;;;;;;;;1.96;81.23;100730.16;2046535;29;20270;-63
2021/05/08 01:12:28;;;;;;;6.35;5.75;;;;;;;1.92;81.93;100733.53;2039347;29;20368;-63
2021/05/08 01:13:28;;;;;;;6.80;5.67;;;;;;;1.89;82.36;100727.50;2039709;29;20050;-63
2021/05/08 01:14:29;;;;;;;6.60;6.00;;;;;;;1.93;81.96;100737.84;2041522;29;20020;-63
2021/05/08 01:15:29;;;;;;;8.63;6.20;;;;;;;1.92;82.55;100730.09;2041367;29;20279;-63
2021/05/08 01:16:30;;;;;;;7.23;5.57;;;;;;;1.86;82.66;100729.19;2041862;28;20032;-63
2021/05/08 01:17:30;;;;;;;6.00;5.40;;;;;;;1.84;82.98;100735.16;2041083;29;20103;-63
2021/05/08 01:18:32;;;;;;;8.03;6.33;;;;;;;1.81;83.41;100725.66;2041381;29;20047;-63
2021/05/08 01:19:32;;;;;;;6.88;6.18;;;;;;;1.77;83.48;100728.16;2041969;29;20556;-63
2021/05/08 01:20:33;;;;;;;6.53;5.88;;;;;;;1.68;83.83;100731.50;2041606;29;20044;-63
2021/05/08 01:21:33;;;;;;;6.40;5.73;;;;;;;1.67;83.60;100722.91;2041510;29;20019;-63
2021/05/08 01:22:34;;;;;;;6.57;5.70;;;;;;;1.69;83.17;100725.50;2040957;29;20036;-64
2021/05/08 01:23:34;;;;;;;7.40;5.73;;;;;;;1.75;83.07;100723.03;2041502;29;20038;-63
2021/05/08 01:24:35;;;;;;;7.07;6.37;;;;;;;1.72;82.80;100720.41;2041307;29;20035;-64
2021/05/08 01:25:35;;;;;;;6.40;5.80;;;;;;;1.75;83.00;100720.44;2043965;29;20275;-63
2021/05/08 01:26:35;;;;;;;6.27;5.63;;;;;;;1.78;82.29;100725.66;2044624;29;20043;-63
2021/05/08 01:27:43;;;;;;;6.37;5.77;;;;;;;1.78;82.02;100723.06;2047071;29;20896;-64
2021/05/08 01:28:45;;;;;;;6.15;5.50;;;;;;;1.77;82.13;100728.16;2044871;29;20377;-64
2021/05/08 01:29:45;;;;;;;6.10;5.40;;;;;;;1.75;82.15;100728.16;2045334;28;20441;-64
2021/05/08 01:30:46;;;;;;;6.50;5.90;;;;;;;1.68;82.52;100726.34;2045125;29;20115;-63
2021/05/08 01:31:46;;;;;;;8.68;5.85;;;;;;;1.64;82.87;100724.56;2044698;29;20473;-64
2021/05/08 01:32:47;;;;;;;6.30;5.70;;;;;;;1.69;82.61;100722.94;2044557;29;20055;-64
2021/05/08 01:33:47;;;;;;;7.18;5.22;;;;;;;1.74;82.07;100726.44;2045056;28;20164;-64
2021/05/08 01:34:48;;;;;;;6.67;5.63;;;;;;;1.75;81.79;100715.31;2045144;29;20119;-64
2021/05/08 01:35:48;;;;;;;6.13;5.63;;;;;;;1.71;81.95;100718.69;2044244;28;20042;-64
2021/05/08 01:36:48;;;;;;;5.63;5.03;;;;;;;1.70;81.95;100704.97;2043877;29;20023;-63
2021/05/08 01:37:49;;;;;;;7.60;5.60;;;;;;;1.70;81.84;100712.69;2043839;29;20180;-63
2021/05/08 01:38:50;;;;;;;6.05;5.15;;;;;;;1.78;81.67;100715.38;2043388;28;20083;-63
2021/05/08 01:39:51;;;;;;;5.72;5.15;;;;;;;1.81;81.53;100717.09;2045921;29;20338;-64
2021/05/08 01:41:08;;;;;;;6.40;5.57;;;;;;;1.75;81.63;100710.16;2044803;28;20046;-64
2021/05/08 01:42:09;;;;;;;8.05;5.53;;;;;;;1.82;81.59;100711.97;2041919;29;20548;-63
2021/05/08 01:43:09;;;;;;;6.47;5.87;;;;;;;1.81;81.48;100710.25;2042721;28;20111;-64
2021/05/08 01:44:09;;;;;;;6.57;5.40;;;;;;;1.77;81.41;100717.88;2040847;29;20046;-64
2021/05/08 01:45:21;;;;;;;7.33;5.37;;;;;;;1.84;81.02;100710.28;2041096;29;20316;-64
2021/05/08 01:46:22;;;;;;;7.03;5.32;;;;;;;1.85;80.99;100711.19;2041278;29;20023;-64
2021/05/08 01:47:22;;;;;;;7.73;5.37;;;;;;;1.77;81.29;100711.06;2041088;29;20042;-64
2021/05/08 01:48:23;;;;;;;7.30;5.20;;;;;;;1.84;81.00;100702.59;2041639;28;20024;-64
2021/05/08 01:49:24;;;;;;;5.70;5.10;;;;;;;1.98;80.29;100696.78;2041437;29;20469;-64
2021/05/08 01:50:26;;;;;;;6.20;5.43;;;;;;;2.08;79.72;100697.75;2041871;29;20382;-64
2021/05/08 01:51:26;;;;;;;6.13;5.53;;;;;;;2.10;79.43;100694.38;2041588;29;20365;-64
2021/05/08 01:52:26;;;;;;;8.43;5.30;;;;;;;2.04;79.80;100696.00;2043583;29;20113;-64
2021/05/08 01:53:26;;;;;;;5.90;5.23;;;;;;;1.91;80.31;100700.97;2043592;29;20043;-64
2021/05/08 01:54:27;;;;;;;5.67;5.17;;;;;;;1.84;80.40;100694.88;2046233;28;20529;-64
2021/05/08 01:55:28;;;;;;;11.27;5.90;;;;;;;1.84;80.33;100694.88;2042090;29;20051;-64
2021/05/08 01:56:29;;;;;;;5.55;5.05;;;;;;;1.93;79.87;100694.16;2044460;28;20040;-64
2021/05/08 01:57:29;;;;;;;6.13;5.40;;;;;;;1.84;80.11;100700.00;2045934;28;20034;-64
2021/05/08 01:58:29;;;;;;;5.97;5.17;;;;;;;1.78;80.51;100704.19;2041343;29;20020;-64
2021/05/08 01:59:30;;;;;;;6.40;5.53;;;;;;;1.71;81.00;100704.13;2046818;29;20078;-64
2021/05/08 02:00:37;;;;;;;5.87;5.23;;;;;;;1.75;81.08;100694.75;2041193;29;20036;-64
2021/05/08 02:01:37;;;;;;;5.60;5.10;;;;;;;1.78;80.81;100694.81;2041085;29;20055;-64
2021/05/08 02:02:38;;;;;;;6.17;5.40;;;;;;;1.64;81.61;100691.16;2041304;29;20032;-63
2021/05/08 02:03:38;;;;;;;6.13;5.50;;;;;;;1.60;82.10;100689.41;2041280;29;20023;-64
2021/05/08 02:04:39;;;;;;;6.20;5.17;;;;;;;1.53;82.14;100698.72;2040824;29;20031;-64
2021/05/08 02:05:41;;;;;;;6.28;5.50;;;;;;;1.55;82.32;100695.31;2041351;29;20059;-64
2021/05/08 02:06:48;;;;;;;6.20;5.60;;;;;;;1.53;82.28;100694.44;2043841;29;20381;-64
2021/05/08 02:07:50;;;;;;;6.13;5.50;;;;;;;1.52;82.78;100694.44;2043040;29;20074;-64
2021/05/08 02:08:50;;;;;;;6.10;5.50;;;;;;;1.54;82.75;100695.31;2043629;29;20020;-63
2021/05/08 02:09:50;;;;;;;6.07;5.30;;;;;;;1.47;83.03;100696.06;2045601;28;20050;-63
2021/05/08 02:10:51;;;;;;;6.97;6.20;;;;;;;1.65;82.60;100698.91;2043968;29;20031;-63
2021/05/08 02:11:51;;;;;;;6.10;5.50;;;;;;;1.62;82.77;100698.84;2044615;29;20032;-63
2021/05/08 02:12:52;;;;;;;6.28;5.70;;;;;;;1.64;82.80;100692.03;2042180;28;20024;-64
2021/05/08 02:13:52;;;;;;;7.03;6.23;;;;;;;1.57;83.11;100690.19;2044174;29;20436;-64
2021/05/08 02:14:52;;;;;;;7.90;5.90;;;;;;;1.62;82.84;100695.41;2041940;29;20094;-64
2021/05/08 02:15:52;;;;;;;6.77;6.10;;;;;;;1.59;83.38;100697.94;2042300;28;20188;-64
2021/05/08 02:16:53;;;;;;;6.60;5.97;;;;;;;1.61;83.58;100696.28;2038233;29;20027;-64
2021/05/08 02:17:53;;;;;;;7.80;6.40;;;;;;;1.62;83.50;100687.69;2039717;29;20059;-64
2021/05/08 02:18:53;;;;;;;7.70;5.73;;;;;;;1.59;83.69;100685.09;2041236;29;20095;-64
2021/05/08 02:19:54;;;;;;;8.37;5.53;;;;;;;1.55;83.69;100685.06;2041285;29;20118;-64
2021/05/08 02:20:54;;;;;;;7.47;6.13;;;;;;;1.70;83.29;100686.97;2041006;29;20119;-64
2021/05/08 02:21:55;;;;;;;6.50;5.80;;;;;;;1.74;82.98;100682.75;2040985;29;20090;-64
2021/05/08 02:22:57;;;;;;;6.63;6.00;;;;;;;1.68;83.13;100688.66;2040802;29;20043;-64
2021/05/08 02:23:58;;;;;;;7.18;6.43;;;;;;;1.68;83.07;100680.09;2040766;29;20031;-64
2021/05/08 02:24:58;;;;;;;5.93;5.33;;;;;;;1.66;83.17;100689.47;2040097;29;20488;-63
2021/05/08 02:25:58;;;;;;;8.10;6.07;;;;;;;1.84;82.06;100676.03;2040834;29;20058;-63
2021/05/08 02:26:59;;;;;;;6.20;5.60;;;;;;;1.76;82.29;100681.06;2040936;29;20031;-64
2021/05/08 02:27:59;;;;;;;7.20;5.60;;;;;;;1.75;82.79;100678.47;2041313;29;20031;-64
2021/05/08 02:28:59;;;;;;;6.40;5.60;;;;;;;1.65;82.79;100678.34;2040878;29;20381;-64
2021/05/08 02:30:00;;;;;;;6.33;5.73;;;;;;;1.70;82.65;100686.13;2038832;29;20048;-64
2021/05/08 02:31:00;;;;;;;6.15;5.55;;;;;;;1.71;82.36;100681.00;2033629;29;20043;-63
2021/05/08 02:32:01;;;;;;;7.50;6.10;;;;;;;1.76;82.14;100677.63;2040376;29;20160;-64
2021/05/08 02:33:02;;;;;;;6.63;5.80;;;;;;;1.73;82.56;100682.72;2040076;29;20039;-64
2021/05/08 02:34:02;;;;;;;;;;;;;;;1.74;82.21;100682.75;2041235;29;20170;-64
2021/05/08 02:35:05;;;;;;;8.07;5.88;;;;;;;1.73;82.38;100680.16;2040316;29;19915;-64
2021/05/08 02:36:05;;;;;;;7.35;6.10;;;;;;;1.73;82.58;100681.00;2040603;29;20115;-64
2021/05/08 02:37:06;;;;;;;6.37;5.77;;;;;;;1.84;81.89;100684.59;2041153;29;20031;-64
2021/05/08 02:38:07;;;;;;;6.70;6.07;;;;;;;1.79;81.98;100680.22;2041150;29;20031;-64
2021/05/08 02:39:07;;;;;;;6.82;6.20;;;;;;;1.74;82.49;100687.03;2040851;29;20501;-64
2021/05/08 02:40:11;;;;;;;7.87;5.97;;;;;;;1.69;82.16;100681.81;2041046;29;20047;-63
2021/05/08 02:41:11;;;;;;;6.28;5.57;;;;;;;1.82;81.79;100675.13;2040753;29;20103;-64
2021/05/08 02:42:11;;;;;;;7.40;6.03;;;;;;;1.91;81.46;100687.25;2040923;29;20477;-64
2021/05/08 02:43:12;;;;;;;8.27;6.63;;;;;;;1.80;81.96;100679.38;2040696;29;20499;-64
2021/05/08 02:44:12;;;;;;;8.03;6.40;;;;;;;1.72;82.25;100679.28;2041029;29;20074;-64
2021/05/08 02:45:13;;;;;;;7.57;5.83;;;;;;;1.71;82.22;100680.16;2040815;29;20516;-64
2021/05/08 02:46:13;;;;;;;6.93;6.22;;;;;;;1.68;82.26;100680.09;2040140;29;20028;-64
2021/05/08 02:47:19;;;;;;;6.30;5.70;;;;;;;1.61;82.43;100681.72;2040421;29;20059;-64
2021/05/08 02:48:20;;;;;;;6.63;6.00;;;;;;;1.62;82.44;100678.31;2041231;29;20023;-64
2021/05/08 02:49:20;;;;;;;6.83;6.13;;;;;;;1.61;82.67;100678.28;2040419;29;20028;-64
2021/05/08 02:50:21;;;;;;;6.80;5.87;;;;;;;1.59;82.47;100677.41;2040034;29;20036;-64
2021/05/08 02:51:22;;;;;;;6.32;5.72;;;;;;;1.52;82.88;100682.44;2040948;28;20031;-64
2021/05/08 02:52:22;;;;;;;6.83;6.17;;;;;;;1.52;83.09;100686.72;2040591;29;20051;-63
2021/05/08 02:53:22;;;;;;;6.47;5.87;;;;;;;1.61;82.71;100691.13;2040933;29;20052;-64
2021/05/08 02:54:23;;;;;;;6.80;6.10;;;;;;;1.57;82.74;100684.22;2040419;29;20027;-63
2021/05/08 02:55:23;;;;;;;7.17;6.10;;;;;;;1.49;83.30;100682.41;2040798;29;20070;-64
2021/05/08 02:56:23;;;;;;;7.30;6.10;;;;;;;1.50;83.28;100679.00;2040277;29;20368;-63
2021/05/08 02:57:24;;;;;;;7.30;6.60;;;;;;;1.57;82.81;100679.06;2040618;29;20054;-63
2021/05/08 02:58:24;;;;;;;6.70;6.10;;;;;;;1.54;82.59;100677.34;2041028;29;20031;-64
2021/05/08 02:59:24;;;;;;;7.27;6.53;;;;;;;1.47;82.92;100683.22;2040856;29;20071;-63
2021/05/08 03:00:24;;;;;;;8.47;6.50;;;;;;;1.40;83.19;100677.13;2040471;29;20087;-63
2021/05/08 03:01:25;;;;;;;7.17;6.47;;;;;;;1.43;83.22;100672.03;2040775;29;20023;-63
2021/05/08 03:02:25;;;;;;;7.20;6.20;;;;;;;1.52;82.76;100669.59;2039997;29;20636;-63
2021/05/08 03:03:25;;;;;;;6.60;5.67;;;;;;;1.54;82.50;100674.75;2040330;29;20035;-64
2021/05/08 03:04:27;;;;;;;8.10;5.97;;;;;;;1.45;83.02;100672.06;2040476;29;20095;-64
2021/05/08 03:05:27;;;;;;;7.00;6.03;;;;;;;1.45;82.90;100675.47;2041106;29;20071;-64
2021/05/08 03:06:27;;;;;;;8.20;6.10;;;;;;;1.43;83.04;100677.16;2040787;29;20332;-64
2021/05/08 03:07:27;;;;;;;7.27;6.57;;;;;;;1.37;83.12;100679.66;2040878;29;20027;-64
2021/05/08 03:08:28;;;;;;;6.77;6.10;;;;;;;1.42;82.72;100680.56;2040868;29;20054;-64
2021/05/08 03:09:29;;;;;;;9.87;6.00;;;;;;;1.42;82.88;100680.56;2040867;29;20024;-64
2021/05/08 03:10:29;;;;;;;6.72;6.13;;;;;;;1.48;82.73;100680.66;2040858;29;20023;-64
2021/05/08 03:11:30;;;;;;;6.80;6.03;;;;;;;1.50;82.58;100679.00;2040343;29;20027;-64
2021/05/08 03:12:30;;;;;;;6.70;6.03;;;;;;;1.50;82.33;100681.56;2039954;29;20079;-64
2021/05/08 03:13:30;;;;;;;6.90;5.80;;;;;;;1.43;82.65;100682.28;2039968;29;20059;-64
2021/05/08 03:14:31;;;;;;;7.60;6.17;;;;;;;1.44;82.64;100683.19;2040698;29;20028;-64
2021/05/08 03:15:31;;;;;;;7.33;5.97;;;;;;;1.54;82.36;100685.03;2040793;29;20031;-64
2021/05/08 03:16:31;;;;;;;7.20;6.50;;;;;;;1.40;82.79;100679.69;2040818;29;20059;-64
2021/05/08 03:17:32;;;;;;;7.03;6.27;;;;;;;1.46;83.07;100686.63;2041121;29;20015;-64
2021/05/08 03:18:32;;;;;;;7.87;6.50;;;;;;;1.47;82.76;100689.22;2041024;28;20595;-64
2021/05/08 03:19:32;;;;;;;6.60;5.90;;;;;;;1.43;82.83;100687.44;2040847;29;20103;-64
2021/05/08 03:20:33;;;;;;;6.80;6.10;;;;;;;1.40;82.83;100688.25;2041194;29;20335;-64
2021/05/08 03:21:33;;;;;;;8.37;6.80;;;;;;;1.33;83.32;100685.56;2040508;29;20019;-64
2021/05/08 03:22:34;;;;;;;7.25;6.22;;;;;;;1.47;82.72;100688.38;2041071;29;20043;-64
2021/05/08 03:23:34;;;;;;;7.60;6.53;;;;;;;1.42;82.88;100685.69;2040793;29;20039;-64
2021/05/08 03:24:34;;;;;;;7.23;6.53;;;;;;;1.30;83.65;100685.53;2040926;29;20032;-64
2021/05/08 03:25:35;;;;;;;10.37;6.30;;;;;;;1.21;83.86;100682.00;2040697;29;20115;-64
2021/05/08 03:26:36;;;;;;;7.60;6.83;;;;;;;1.19;83.91;100683.66;2041189;29;20477;-64
2021/05/08 03:27:36;;;;;;;;;;;;;;;1.12;84.24;100686.97;2043771;29;20027;-64
2021/05/08 03:28:37;;;;;;;7.63;6.05;;;;;;;1.07;84.34;100676.63;2040585;29;20001;-64
2021/05/08 03:29:37;;;;;;;7.53;6.60;;;;;;;1.00;84.88;100679.91;2041175;29;20070;-64
2021/05/08 03:30:37;;;;;;;7.13;6.43;;;;;;;0.96;85.03;100679.84;2041225;29;20031;-64
2021/05/08 03:31:38;;;;;;;7.63;6.93;;;;;;;0.96;85.24;100684.97;2040744;29;20038;-64
2021/05/08 03:32:38;;;;;;;7.05;6.43;;;;;;;0.96;85.05;100675.59;2040945;29;20102;-64
2021/05/08 03:33:38;;;;;;;7.50;6.30;;;;;;;0.97;85.52;100676.44;2042751;29;20032;-64
2021/05/08 03:34:39;;;;;;;7.03;6.33;;;;;;;0.92;85.23;100674.69;2049021;28;20029;-64
2021/05/08 03:35:39;;;;;;;7.30;6.60;;;;;;;0.89;85.61;100672.03;2048875;28;20042;-64
2021/05/08 03:36:39;;;;;;;8.23;6.17;;;;;;;0.97;85.23;100676.44;2048639;28;20037;-64
2021/05/08 03:37:40;;;;;;;8.83;6.77;;;;;;;1.01;85.24;100673.94;2048693;28;20027;-64
2021/05/08 03:38:40;;;;;;;7.67;6.93;;;;;;;1.01;85.32;100673.94;2049928;28;20038;-64
2021/05/08 03:39:40;;;;;;;7.63;6.93;;;;;;;1.02;85.25;100677.41;2040303;29;20047;-64
2021/05/08 03:40:40;;;;;;;7.83;7.03;;;;;;;1.01;85.37;100679.09;2040511;29;20027;-64
2021/05/08 03:41:42;;;;;;;10.53;7.13;;;;;;;0.97;85.55;100676.44;2040781;29;20488;-64
2021/05/08 03:42:42;;;;;;;7.70;6.70;;;;;;;1.00;85.59;100676.50;2040946;29;20055;-64
2021/05/08 03:43:43;;;;;;;7.70;6.70;;;;;;;0.97;85.70;100676.44;2040693;29;20032;-64
2021/05/08 03:44:43;;;;;;;12.03;6.93;;;;;;;1.02;85.34;100677.41;2048023;29;20022;-64
2021/05/08 03:45:43;;;;;;;8.37;6.97;;;;;;;1.18;84.73;100674.22;2048042;29;20105;-64
2021/05/08 03:46:43;;;;;;;7.40;6.70;;;;;;;1.20;84.51;100679.38;2040781;29;20032;-64
2021/05/08 03:47:44;;;;;;;7.77;6.90;;;;;;;1.29;84.14;100679.50;2040553;29;20924;-64
2021/05/08 03:48:44;;;;;;;7.20;6.60;;;;;;;1.21;84.18;100682.00;2040189;29;20027;-64
2021/05/08 03:49:45;;;;;;;7.93;6.38;;;;;;;1.22;84.32;100664.88;2040060;29;20066;-64
2021/05/08 03:50:46;;;;;;;6.87;6.27;;;;;;;1.17;84.36;100672.50;2040522;29;20556;-64
2021/05/08 03:51:46;;;;;;;7.47;6.65;;;;;;;1.12;84.75;100671.56;2040441;29;20074;-64
2021/05/08 03:52:46;;;;;;;8.80;7.03;;;;;;;1.13;84.89;100672.44;2040483;29;20102;-64
2021/05/08 03:53:47;;;;;;;7.67;6.87;;;;;;;1.09;85.14;100669.78;2040806;29;20608;-64
2021/05/08 03:54:47;;;;;;;7.30;6.17;;;;;;;1.07;85.15;100668.94;2040470;29;20020;-64
2021/05/08 03:55:51;;;;;;;8.47;7.00;;;;;;;1.07;85.21;100673.19;2040780;29;20478;-64
2021/05/08 03:56:52;;;;;;;7.18;6.40;;;;;;;1.07;85.25;100670.63;2039912;29;20028;-64
2021/05/08 03:57:52;;;;;;;7.60;6.90;;;;;;;1.09;85.53;100668.94;2039756;29;20079;-64
2021/05/08 03:58:52;;;;;;;9.67;7.40;;;;;;;1.14;85.22;100663.88;2040222;29;20035;-64
2021/05/08 03:59:53;;;;;;;7.88;7.18;;;;;;;1.15;85.04;100671.59;2040724;29;20024;-64
2021/05/08 04:00:54;;;;;;;9.57;6.73;;;;;;;1.12;85.12;100661.31;2039637;29;20048;-64
2021/05/08 04:01:54;;;;;;;7.95;7.22;;;;;;;1.14;85.20;100675.00;2038608;29;20081;-64
2021/05/08 04:02:55;;;;;;;8.43;7.47;;;;;;;1.12;85.37;100663.88;2038444;29;20043;-64
2021/05/08 04:03:55;;;;;;;11.17;7.90;;;;;;;1.18;85.05;100665.66;2040434;29;20035;-64
2021/05/08 04:04:55;;;;;;;11.57;7.57;;;;;;;1.18;85.02;100661.38;2039533;29;20030;-64
2021/05/08 04:05:55;;;;;;;8.30;7.50;;;;;;;1.26;84.56;100663.19;2040015;29;20038;-64
2021/05/08 04:06:56;;;;;;;8.30;7.50;;;;;;;1.28;84.90;100664.09;2040641;29;20035;-64
2021/05/08 04:07:56;;;;;;;9.13;7.40;;;;;;;1.35;84.36;100664.22;2040782;29;20388;-64
2021/05/08 04:08:57;;;;;;;8.95;7.25;;;;;;;1.37;84.13;100662.50;2040016;29;20079;-64
2021/05/08 04:09:57;;;;;;;10.50;8.10;;;;;;;1.39;84.27;100660.00;2040574;29;20123;-64
2021/05/08 04:10:58;;;;;;;8.93;8.03;;;;;;;1.45;84.03;100662.63;2039546;29;20091;-64
2021/05/08 04:11:58;;;;;;;9.13;7.53;;;;;;;1.46;83.92;100666.09;2039496;29;20023;-64
2021/05/08 04:12:59;;;;;;;8.50;7.47;;;;;;;1.58;83.50;100655.13;2039109;29;20031;-64
2021/05/08 04:13:59;;;;;;;8.73;7.83;;;;;;;1.57;83.63;100655.94;2040119;29;20027;-64
2021/05/08 04:14:59;;;;;;;8.60;7.70;;;;;;;1.63;83.11;100651.78;2040455;29;20384;-64
2021/05/08 04:15:59;;;;;;;8.00;7.17;;;;;;;1.65;83.15;100655.22;2040648;29;20074;-64
2021/05/08 04:16:59;;;;;;;7.83;7.03;;;;;;;1.67;83.20;100658.66;2040256;29;20031;-64
2021/05/08 04:18:00;;;;;;;9.10;7.10;;;;;;;1.73;82.75;100657.03;2040711;29;20035;-64
2021/05/08 04:19:02;;;;;;;8.37;7.50;;;;;;;1.75;83.00;100653.63;2040306;29;20070;-64
2021/05/08 04:20:03;;;;;;;7.82;7.03;;;;;;;1.76;82.84;100654.50;2040749;29;20035;-64
2021/05/08 04:21:04;;;;;;;8.18;6.93;;;;;;;1.88;82.45;100653.78;2040172;29;20039;-64
2021/05/08 04:22:05;;;;;;;8.18;7.35;;;;;;;1.95;82.05;100646.19;2040279;29;20110;-64
2021/05/08 04:23:06;;;;;;;7.63;6.87;;;;;;;1.92;82.33;100653.84;2040248;29;20533;-64
2021/05/08 04:24:06;;;;;;;7.82;7.03;;;;;;;1.93;82.18;100652.13;2039999;29;20078;-64
2021/05/08 04:25:07;;;;;;;11.77;7.37;;;;;;;1.96;82.23;100658.16;2039595;29;20526;-64
2021/05/08 04:26:07;;;;;;;7.63;6.93;;;;;;;1.96;82.30;100662.47;2039861;29;20295;-64
2021/05/08 04:27:08;;;;;;;9.70;6.87;;;;;;;1.97;82.19;100664.19;2040599;29;20067;-64
2021/05/08 04:28:11;;;;;;;8.03;7.23;;;;;;;1.89;82.71;100669.22;2040534;29;20393;-64
2021/05/08 04:29:11;;;;;;;8.05;7.25;;;;;;;1.95;82.52;100661.63;2040580;29;20044;-64
2021/05/08 04:30:12;;;;;;;8.47;6.53;;;;;;;2.01;82.22;100655.66;2038672;29;20032;-64
2021/05/08 04:31:13;;;;;;;7.75;6.82;;;;;;;2.02;82.25;100657.38;2037750;29;20039;-64
2021/05/08 04:32:13;;;;;;;7.70;7.00;;;;;;;2.08;82.15;100667.78;2035396;29;20480;-64
2021/05/08 04:33:13;;;;;;;7.87;7.10;;;;;;;2.04;82.29;100665.13;2038774;29;20112;-64
2021/05/08 04:34:14;;;;;;;8.17;7.10;;;;;;;2.09;82.16;100661.78;2039120;29;20055;-64
2021/05/08 04:35:16;;;;;;;7.90;7.10;;;;;;;2.09;82.30;100671.19;2039232;29;20035;-64
2021/05/08 04:36:16;;;;;;;8.20;7.40;;;;;;;2.12;82.31;100664.38;2038244;29;20556;-63
2021/05/08 04:37:16;;;;;;;8.20;7.40;;;;;;;2.17;82.11;100662.72;2038142;29;20042;-64
2021/05/08 04:38:16;;;;;;;7.60;6.90;;;;;;;2.23;82.09;100664.50;2038376;29;20031;-64
2021/05/08 04:39:17;;;;;;;8.63;7.63;;;;;;;2.29;81.80;100661.16;2034369;29;20118;-64
2021/05/08 04:40:17;;;;;;;9.43;7.87;;;;;;;2.28;81.92;100669.72;2038329;29;20118;-63
2021/05/08 04:41:17;;;;;;;8.13;7.00;;;;;;;2.37;81.56;100663.78;2036343;29;20039;-64
2021/05/08 04:42:20;;;;;;;7.80;7.00;;;;;;;2.44;81.20;100663.88;2062140;23;20521;-67
2021/05/08 04:43:21;;;;;;;8.55;7.45;;;;;;;2.58;80.86;100665.75;2030789;29;20054;-68
2021/05/08 04:44:23;;;;;;;7.38;6.68;;;;;;;2.66;80.43;100671.81;2029352;29;20533;-67
2021/05/08 04:45:26;;;;;;;7.80;7.00;;;;;;;2.60;80.44;100664.91;2037426;29;20030;-67
2021/05/08 04:46:27;;;;;;;7.13;6.40;;;;;;;2.65;80.39;100665.78;2039522;29;20027;-67